sensor_id;sensor_type;location;lat;lon;timestamp;pressure;altitude;pressure_sealevel;temperature;humidity
11678;BME280;5895;41.950;24.372;2023-03-13T00:00:07;86692.91;;;1.71;59.46
11678;BME280;5895;41.950;24.372;2023-03-13T00:02:35;86693.88;;;1.70;59.16
11678;BME280;5895;41.950;24.372;2023-03-13T00:05:03;86694.66;;;1.70;59.33
11678;BME280;5895;41.950;24.372;2023-03-13T00:07:31;86699.78;;;1.70;59.59
11678;BME280;5895;41.950;24.372;2023-03-13T00:09:59;86705.09;;;1.69;59.05
11678;BME280;5895;41.950;24.372;2023-03-13T00:12:26;86700.91;;;1.68;59.62
11678;BME280;5895;41.950;24.372;2023-03-13T00:14:54;86704.09;;;1.70;60.01
11678;BME280;5895;41.950;24.372;2023-03-13T00:17:21;86703.66;;;1.66;59.68
11678;BME280;5895;41.950;24.372;2023-03-13T00:19:49;86703.22;;;1.63;59.80
11678;BME280;5895;41.950;24.372;2023-03-13T00:22:16;86702.88;;;1.66;59.46
11678;BME280;5895;41.950;24.372;2023-03-13T00:24:45;86703.66;;;1.66;59.41
11678;BME280;5895;41.950;24.372;2023-03-13T00:27:13;86700.50;;;1.64;59.85
11678;BME280;5895;41.950;24.372;2023-03-13T00:29:40;86701.47;;;1.63;59.43
11678;BME280;5895;41.950;24.372;2023-03-13T00:32:08;86704.81;;;1.64;60.03
11678;BME280;5895;41.950;24.372;2023-03-13T00:34:35;86697.16;;;1.64;60.05
11678;BME280;5895;41.950;24.372;2023-03-13T00:37:02;86693.34;;;1.59;59.78
11678;BME280;5895;41.950;24.372;2023-03-13T00:39:30;86698.47;;;1.59;59.44
11678;BME280;5895;41.950;24.372;2023-03-13T00:41:57;86691.78;;;1.58;59.55
11678;BME280;5895;41.950;24.372;2023-03-13T00:44:29;86687.38;;;1.52;59.57
11678;BME280;5895;41.950;24.372;2023-03-13T00:46:57;86697.16;;;1.49;60.14
11678;BME280;5895;41.950;24.372;2023-03-13T00:49:24;86699.91;;;1.47;60.20
11678;BME280;5895;41.950;24.372;2023-03-13T00:51:51;86696.81;;;1.37;60.74
11678;BME280;5895;41.950;24.372;2023-03-13T00:54:18;86700.97;;;1.38;60.20
11678;BME280;5895;41.950;24.372;2023-03-13T00:56:46;86684.03;;;1.37;60.39
11678;BME280;5895;41.950;24.372;2023-03-13T00:59:13;86683.44;;;1.35;60.19
11678;BME280;5895;41.950;24.372;2023-03-13T01:01:42;86690.66;;;1.31;60.67
11678;BME280;5895;41.950;24.372;2023-03-13T01:04:10;86685.28;;;1.26;60.29
11678;BME280;5895;41.950;24.372;2023-03-13T01:06:39;86683.25;;;1.22;60.39
11678;BME280;5895;41.950;24.372;2023-03-13T01:09:09;86687.50;;;1.15;60.56
11678;BME280;5895;41.950;24.372;2023-03-13T01:11:38;86680.53;;;1.09;60.27
11678;BME280;5895;41.950;24.372;2023-03-13T01:14:08;86691.47;;;1.02;61.04
11678;BME280;5895;41.950;24.372;2023-03-13T01:16:37;86689.06;;;1.01;61.00
11678;BME280;5895;41.950;24.372;2023-03-13T01:19:07;86682.47;;;0.92;60.50
11678;BME280;5895;41.950;24.372;2023-03-13T01:21:35;86697.03;;;0.91;60.76
11678;BME280;5895;41.950;24.372;2023-03-13T01:24:03;86694.81;;;0.88;61.48
11678;BME280;5895;41.950;24.372;2023-03-13T01:26:30;86702.19;;;0.83;60.70
11678;BME280;5895;41.950;24.372;2023-03-13T01:28:58;86693.47;;;0.77;60.68
11678;BME280;5895;41.950;24.372;2023-03-13T01:31:26;86700.69;;;0.74;61.21
11678;BME280;5895;41.950;24.372;2023-03-13T01:33:56;86701.41;;;0.68;61.35
11678;BME280;5895;41.950;24.372;2023-03-13T01:36:25;86693.19;;;0.58;61.44
11678;BME280;5895;41.950;24.372;2023-03-13T01:38:54;86704.09;;;0.51;61.74
11678;BME280;5895;41.950;24.372;2023-03-13T01:41:23;86705.22;;;0.49;61.93
11678;BME280;5895;41.950;24.372;2023-03-13T01:43:51;86701.59;;;0.43;61.64
11678;BME280;5895;41.950;24.372;2023-03-13T01:46:21;86702.25;;;0.45;62.20
11678;BME280;5895;41.950;24.372;2023-03-13T01:48:52;86705.44;;;0.39;61.86
11678;BME280;5895;41.950;24.372;2023-03-13T01:51:24;86706.94;;;0.34;62.26
11678;BME280;5895;41.950;24.372;2023-03-13T01:53:58;86706.50;;;0.30;61.72
11678;BME280;5895;41.950;24.372;2023-03-13T01:56:33;86709.75;;;0.24;61.85
11678;BME280;5895;41.950;24.372;2023-03-13T01:59:03;86708.81;;;0.17;61.46
11678;BME280;5895;41.950;24.372;2023-03-13T02:01:31;86720.00;;;0.16;61.92
11678;BME280;5895;41.950;24.372;2023-03-13T02:03:58;86708.09;;;0.08;62.51
11678;BME280;5895;41.950;24.372;2023-03-13T02:06:28;86709.56;;;0.03;62.48
11678;BME280;5895;41.950;24.372;2023-03-13T02:09:01;86725.19;;;-0.01;62.33
11678;BME280;5895;41.950;24.372;2023-03-13T02:11:36;86726.53;;;-0.05;62.07
11678;BME280;5895;41.950;24.372;2023-03-13T02:14:06;86730.38;;;-0.09;62.52
11678;BME280;5895;41.950;24.372;2023-03-13T02:16:34;86728.97;;;-0.11;62.90
11678;BME280;5895;41.950;24.372;2023-03-13T02:19:08;86726.28;;;-0.18;62.74
11678;BME280;5895;41.950;24.372;2023-03-13T02:21:42;86732.69;;;-0.22;62.67
11678;BME280;5895;41.950;24.372;2023-03-13T02:24:20;86736.16;;;-0.23;62.85
11678;BME280;5895;41.950;24.372;2023-03-13T02:26:52;86734.94;;;-0.27;62.14
11678;BME280;5895;41.950;24.372;2023-03-13T02:29:19;86739.25;;;-0.28;62.15
11678;BME280;5895;41.950;24.372;2023-03-13T02:31:47;86751.59;;;-0.39;62.58
11678;BME280;5895;41.950;24.372;2023-03-13T02:34:18;86751.59;;;-0.47;62.86
11678;BME280;5895;41.950;24.372;2023-03-13T02:36:46;86757.19;;;-0.52;62.46
11678;BME280;5895;41.950;24.372;2023-03-13T02:39:17;86754.81;;;-0.54;63.24
11678;BME280;5895;41.950;24.372;2023-03-13T02:41:47;86763.59;;;-0.56;63.50
11678;BME280;5895;41.950;24.372;2023-03-13T02:44:16;86770.41;;;-0.57;62.78
11678;BME280;5895;41.950;24.372;2023-03-13T02:46:45;86764.09;;;-0.61;62.88
11678;BME280;5895;41.950;24.372;2023-03-13T02:49:20;86773.81;;;-0.64;63.07
11678;BME280;5895;41.950;24.372;2023-03-13T02:51:49;86774.94;;;-0.67;63.34
11678;BME280;5895;41.950;24.372;2023-03-13T02:54:19;86783.22;;;-0.65;62.88
11678;BME280;5895;41.950;24.372;2023-03-13T02:56:49;86771.44;;;-0.66;63.32
11678;BME280;5895;41.950;24.372;2023-03-13T02:59:19;86778.44;;;-0.68;63.29
11678;BME280;5895;41.950;24.372;2023-03-13T03:01:46;86779.72;;;-0.72;62.82
11678;BME280;5895;41.950;24.372;2023-03-13T03:04:18;86781.00;;;-0.76;63.14
11678;BME280;5895;41.950;24.372;2023-03-13T03:06:46;86784.84;;;-0.80;62.87
11678;BME280;5895;41.950;24.372;2023-03-13T03:09:13;86789.31;;;-0.82;63.38
11678;BME280;5895;41.950;24.372;2023-03-13T03:11:41;86790.28;;;-0.83;63.99
11678;BME280;5895;41.950;24.372;2023-03-13T03:14:08;86792.97;;;-0.85;63.98
11678;BME280;5895;41.950;24.372;2023-03-13T03:16:38;86803.34;;;-0.94;63.75
11678;BME280;5895;41.950;24.372;2023-03-13T03:19:05;86804.78;;;-1.00;63.90
11678;BME280;5895;41.950;24.372;2023-03-13T03:21:34;86801.59;;;-1.02;63.75
11678;BME280;5895;41.950;24.372;2023-03-13T03:24:01;86811.16;;;-1.04;63.44
11678;BME280;5895;41.950;24.372;2023-03-13T03:26:28;86810.06;;;-1.10;63.59
11678;BME280;5895;41.950;24.372;2023-03-13T03:28:56;86808.78;;;-1.14;63.41
11678;BME280;5895;41.950;24.372;2023-03-13T03:31:23;86811.50;;;-1.15;63.77
11678;BME280;5895;41.950;24.372;2023-03-13T03:33:52;86815.78;;;-1.16;64.05
11678;BME280;5895;41.950;24.372;2023-03-13T03:36:21;86815.16;;;-1.18;63.63
11678;BME280;5895;41.950;24.372;2023-03-13T03:38:49;86816.44;;;-1.22;64.41
11678;BME280;5895;41.950;24.372;2023-03-13T03:41:17;86828.50;;;-1.24;63.86
11678;BME280;5895;41.950;24.372;2023-03-13T03:43:45;86826.94;;;-1.25;64.04
11678;BME280;5895;41.950;24.372;2023-03-13T03:46:14;86827.72;;;-1.24;64.32
11678;BME280;5895;41.950;24.372;2023-03-13T03:48:41;86833.59;;;-1.24;64.37
11678;BME280;5895;41.950;24.372;2023-03-13T03:51:10;86832.50;;;-1.21;64.23
11678;BME280;5895;41.950;24.372;2023-03-13T03:53:37;86833.91;;;-1.19;64.41
11678;BME280;5895;41.950;24.372;2023-03-13T03:56:05;86838.69;;;-1.24;64.12
11678;BME280;5895;41.950;24.372;2023-03-13T03:58:32;86836.31;;;-1.25;64.00
11678;BME280;5895;41.950;24.372;2023-03-13T04:01:00;86845.22;;;-1.29;63.94
11678;BME280;5895;41.950;24.372;2023-03-13T04:03:27;86852.38;;;-1.41;64.11
11678;BME280;5895;41.950;24.372;2023-03-13T04:05:54;86851.28;;;-1.39;64.31
11678;BME280;5895;41.950;24.372;2023-03-13T04:08:23;86846.81;;;-1.45;64.53
11678;BME280;5895;41.950;24.372;2023-03-13T04:10:51;86846.34;;;-1.48;63.98
11678;BME280;5895;41.950;24.372;2023-03-13T04:13:18;86858.09;;;-1.47;63.97
11678;BME280;5895;41.950;24.372;2023-03-13T04:15:45;86856.84;;;-1.51;64.14
11678;BME280;5895;41.950;24.372;2023-03-13T04:18:13;86853.66;;;-1.53;64.49
11678;BME280;5895;41.950;24.372;2023-03-13T04:20:41;86859.06;;;-1.56;64.46
11678;BME280;5895;41.950;24.372;2023-03-13T04:23:08;86861.13;;;-1.60;64.01
11678;BME280;5895;41.950;24.372;2023-03-13T04:25:37;86856.81;;;-1.60;64.53
11678;BME280;5895;41.950;24.372;2023-03-13T04:28:04;86860.63;;;-1.64;64.48
11678;BME280;5895;41.950;24.372;2023-03-13T04:30:32;86866.66;;;-1.65;64.46
11678;BME280;5895;41.950;24.372;2023-03-13T04:32:59;86869.88;;;-1.63;64.87
11678;BME280;5895;41.950;24.372;2023-03-13T04:35:26;86867.97;;;-1.61;64.45
11678;BME280;5895;41.950;24.372;2023-03-13T04:37:53;86869.25;;;-1.56;64.25
11678;BME280;5895;41.950;24.372;2023-03-13T04:40:21;86877.19;;;-1.51;64.40
11678;BME280;5895;41.950;24.372;2023-03-13T04:42:49;86882.28;;;-1.51;64.52
11678;BME280;5895;41.950;24.372;2023-03-13T04:45:17;86887.03;;;-1.48;64.32
11678;BME280;5895;41.950;24.372;2023-03-13T04:47:45;86885.94;;;-1.54;64.42
11678;BME280;5895;41.950;24.372;2023-03-13T04:50:12;86886.88;;;-1.55;64.79
11678;BME280;5895;41.950;24.372;2023-03-13T04:52:39;86897.69;;;-1.53;64.61
11678;BME280;5895;41.950;24.372;2023-03-13T04:55:07;86899.13;;;-1.50;64.37
11678;BME280;5895;41.950;24.372;2023-03-13T04:57:35;86905.31;;;-1.53;64.24
11678;BME280;5895;41.950;24.372;2023-03-13T05:00:05;86897.84;;;-1.54;64.46
11678;BME280;5895;41.950;24.372;2023-03-13T05:02:33;86899.91;;;-1.58;65.18
11678;BME280;5895;41.950;24.372;2023-03-13T05:05:00;86901.66;;;-1.58;64.89
11678;BME280;5895;41.950;24.372;2023-03-13T05:07:27;86910.25;;;-1.60;64.62
11678;BME280;5895;41.950;24.372;2023-03-13T05:09:55;86907.69;;;-1.60;64.81
11678;BME280;5895;41.950;24.372;2023-03-13T05:12:22;86908.31;;;-1.57;65.00
11678;BME280;5895;41.950;24.372;2023-03-13T05:14:49;86904.84;;;-1.56;64.65
11678;BME280;5895;41.950;24.372;2023-03-13T05:17:18;86909.94;;;-1.56;65.11
11678;BME280;5895;41.950;24.372;2023-03-13T05:19:46;86915.03;;;-1.56;64.93
11678;BME280;5895;41.950;24.372;2023-03-13T05:22:13;86924.41;;;-1.57;65.31
11678;BME280;5895;41.950;24.372;2023-03-13T05:24:40;86915.66;;;-1.54;64.83
11678;BME280;5895;41.950;24.372;2023-03-13T05:27:07;86917.41;;;-1.55;65.21
11678;BME280;5895;41.950;24.372;2023-03-13T05:29:35;86921.38;;;-1.52;64.98
11678;BME280;5895;41.950;24.372;2023-03-13T05:32:02;86921.06;;;-1.49;65.25
11678;BME280;5895;41.950;24.372;2023-03-13T05:34:31;86929.50;;;-1.49;65.12
11678;BME280;5895;41.950;24.372;2023-03-13T05:36:58;86925.84;;;-1.46;64.92
11678;BME280;5895;41.950;24.372;2023-03-13T05:39:25;86929.03;;;-1.44;64.75
11678;BME280;5895;41.950;24.372;2023-03-13T05:41:53;86934.13;;;-1.44;65.35
11678;BME280;5895;41.950;24.372;2023-03-13T05:44:20;86934.13;;;-1.44;65.26
11678;BME280;5895;41.950;24.372;2023-03-13T05:46:47;86933.00;;;-1.42;64.99
11678;BME280;5895;41.950;24.372;2023-03-13T05:49:14;86949.38;;;-1.44;65.59
11678;BME280;5895;41.950;24.372;2023-03-13T05:51:43;86944.94;;;-1.42;65.42
11678;BME280;5895;41.950;24.372;2023-03-13T05:54:10;86956.41;;;-1.38;65.74
11678;BME280;5895;41.950;24.372;2023-03-13T05:56:38;86947.81;;;-1.37;65.71
11678;BME280;5895;41.950;24.372;2023-03-13T05:59:05;86952.59;;;-1.34;65.65
11678;BME280;5895;41.950;24.372;2023-03-13T06:01:32;86958.63;;;-1.35;65.35
11678;BME280;5895;41.950;24.372;2023-03-13T06:04:00;86964.19;;;-1.31;65.75
11678;BME280;5895;41.950;24.372;2023-03-13T06:06:27;86951.97;;;-1.20;65.66
11678;BME280;5895;41.950;24.372;2023-03-13T06:08:56;86959.00;;;-1.05;65.23
11678;BME280;5895;41.950;24.372;2023-03-13T06:11:23;86958.22;;;-0.90;64.54
11678;BME280;5895;41.950;24.372;2023-03-13T06:13:50;86959.16;;;-0.74;64.75
11678;BME280;5895;41.950;24.372;2023-03-13T06:16:18;86965.38;;;-0.61;64.56
11678;BME280;5895;41.950;24.372;2023-03-13T06:18:45;86965.34;;;-0.44;64.59
11678;BME280;5895;41.950;24.372;2023-03-13T06:21:13;86968.19;;;-0.31;64.05
11678;BME280;5895;41.950;24.372;2023-03-13T06:23:40;86973.56;;;-0.18;64.77
11678;BME280;5895;41.950;24.372;2023-03-13T06:26:09;86972.28;;;-0.06;64.56
11678;BME280;5895;41.950;24.372;2023-03-13T06:28:36;86975.44;;;0.05;63.99
11678;BME280;5895;41.950;24.372;2023-03-13T06:31:05;86977.31;;;0.19;63.42
11678;BME280;5895;41.950;24.372;2023-03-13T06:33:33;86973.44;;;0.31;63.06
11678;BME280;5895;41.950;24.372;2023-03-13T06:36:01;86969.88;;;0.48;62.90
11678;BME280;5895;41.950;24.372;2023-03-13T06:38:28;86977.50;;;0.57;62.89
11678;BME280;5895;41.950;24.372;2023-03-13T06:40:56;86981.28;;;0.69;62.53
11678;BME280;5895;41.950;24.372;2023-03-13T06:43:25;86972.75;;;0.85;61.86
11678;BME280;5895;41.950;24.372;2023-03-13T06:45:53;86965.13;;;0.99;61.73
11678;BME280;5895;41.950;24.372;2023-03-13T06:48:20;86972.22;;;1.12;61.58
11678;BME280;5895;41.950;24.372;2023-03-13T06:50:48;86972.00;;;1.22;61.29
11678;BME280;5895;41.950;24.372;2023-03-13T06:53:18;86975.22;;;1.24;61.71
11678;BME280;5895;41.950;24.372;2023-03-13T06:55:46;86976.78;;;1.25;60.86
11678;BME280;5895;41.950;24.372;2023-03-13T06:58:13;86980.06;;;1.33;60.88
11678;BME280;5895;41.950;24.372;2023-03-13T07:00:43;86978.84;;;1.52;61.40
11678;BME280;5895;41.950;24.372;2023-03-13T07:03:11;86978.97;;;1.74;61.30
11678;BME280;5895;41.950;24.372;2023-03-13T07:05:38;86988.44;;;1.88;60.47
11678;BME280;5895;41.950;24.372;2023-03-13T07:08:06;86984.22;;;1.95;59.72
11678;BME280;5895;41.950;24.372;2023-03-13T07:10:33;86978.66;;;2.06;59.99
11678;BME280;5895;41.950;24.372;2023-03-13T07:13:00;86976.41;;;2.26;60.01
11678;BME280;5895;41.950;24.372;2023-03-13T07:15:28;86967.84;;;2.34;58.14
11678;BME280;5895;41.950;24.372;2023-03-13T07:17:57;86976.66;;;2.46;57.88
11678;BME280;5895;41.950;24.372;2023-03-13T07:20:24;86967.81;;;2.63;58.40
11678;BME280;5895;41.950;24.372;2023-03-13T07:22:52;86966.50;;;2.68;57.71
11678;BME280;5895;41.950;24.372;2023-03-13T07:25:19;86969.06;;;2.68;57.32
11678;BME280;5895;41.950;24.372;2023-03-13T07:27:49;86967.47;;;2.67;57.17
11678;BME280;5895;41.950;24.372;2023-03-13T07:30:18;86975.31;;;2.80;57.33
11678;BME280;5895;41.950;24.372;2023-03-13T07:32:45;86972.75;;;2.80;57.75
11678;BME280;5895;41.950;24.372;2023-03-13T07:35:14;86968.41;;;2.95;57.22
11678;BME280;5895;41.950;24.372;2023-03-13T07:37:41;86974.66;;;3.07;57.13
11678;BME280;5895;41.950;24.372;2023-03-13T07:40:10;86969.56;;;3.29;57.18
11678;BME280;5895;41.950;24.372;2023-03-13T07:42:39;86967.63;;;3.52;58.51
11678;BME280;5895;41.950;24.372;2023-03-13T07:45:07;86965.25;;;3.72;56.76
11678;BME280;5895;41.950;24.372;2023-03-13T07:47:35;86973.84;;;3.86;55.84
11678;BME280;5895;41.950;24.372;2023-03-13T07:50:02;86979.84;;;3.93;56.02
11678;BME280;5895;41.950;24.372;2023-03-13T07:52:31;86981.91;;;4.04;55.10
11678;BME280;5895;41.950;24.372;2023-03-13T07:54:58;86978.34;;;4.05;55.47
11678;BME280;5895;41.950;24.372;2023-03-13T07:57:26;86983.84;;;4.02;55.51
11678;BME280;5895;41.950;24.372;2023-03-13T07:59:53;86983.97;;;3.94;55.19
11678;BME280;5895;41.950;24.372;2023-03-13T08:02:20;86988.63;;;4.05;55.34
11678;BME280;5895;41.950;24.372;2023-03-13T08:04:51;86992.16;;;4.04;53.44
11678;BME280;5895;41.950;24.372;2023-03-13T08:07:18;86990.63;;;4.10;55.38
11678;BME280;5895;41.950;24.372;2023-03-13T08:09:47;86995.31;;;4.28;55.91
11678;BME280;5895;41.950;24.372;2023-03-13T08:12:14;86998.34;;;4.38;55.71
11678;BME280;5895;41.950;24.372;2023-03-13T08:14:41;86988.00;;;4.59;55.86
11678;BME280;5895;41.950;24.372;2023-03-13T08:17:09;86981.97;;;4.73;55.18
11678;BME280;5895;41.950;24.372;2023-03-13T08:19:36;86975.75;;;4.96;55.38
11678;BME280;5895;41.950;24.372;2023-03-13T08:22:03;86974.44;;;5.13;54.42
11678;BME280;5895;41.950;24.372;2023-03-13T08:24:31;86969.53;;;5.31;54.43
11678;BME280;5895;41.950;24.372;2023-03-13T08:26:59;86962.84;;;5.44;53.82
11678;BME280;5895;41.950;24.372;2023-03-13T08:29:27;86968.03;;;5.57;54.03
11678;BME280;5895;41.950;24.372;2023-03-13T08:31:54;86974.63;;;5.73;53.61
11678;BME280;5895;41.950;24.372;2023-03-13T08:34:21;86974.50;;;6.07;55.89
11678;BME280;5895;41.950;24.372;2023-03-13T08:36:49;86963.00;;;6.36;54.25
11678;BME280;5895;41.950;24.372;2023-03-13T08:39:19;86965.00;;;6.34;52.84
11678;BME280;5895;41.950;24.372;2023-03-13T08:41:47;86966.97;;;6.52;54.00
11678;BME280;5895;41.950;24.372;2023-03-13T08:44:17;86961.75;;;6.72;51.91
11678;BME280;5895;41.950;24.372;2023-03-13T08:46:45;86960.16;;;6.84;52.91
11678;BME280;5895;41.950;24.372;2023-03-13T08:49:14;86954.22;;;6.91;51.78
11678;BME280;5895;41.950;24.372;2023-03-13T08:51:42;86957.38;;;6.93;51.35
11678;BME280;5895;41.950;24.372;2023-03-13T08:54:09;86954.56;;;7.01;52.87
11678;BME280;5895;41.950;24.372;2023-03-13T08:56:37;86959.28;;;7.17;52.44
11678;BME280;5895;41.950;24.372;2023-03-13T08:59:05;86970.78;;;7.21;51.92
11678;BME280;5895;41.950;24.372;2023-03-13T09:01:35;86967.59;;;7.26;52.10
11678;BME280;5895;41.950;24.372;2023-03-13T09:04:03;86980.41;;;7.46;52.54
11678;BME280;5895;41.950;24.372;2023-03-13T09:06:31;86985.91;;;7.69;52.67
11678;BME280;5895;41.950;24.372;2023-03-13T09:08:58;86983.22;;;7.82;52.41
11678;BME280;5895;41.950;24.372;2023-03-13T09:11:26;86984.72;;;7.96;52.93
11678;BME280;5895;41.950;24.372;2023-03-13T09:13:54;86979.84;;;8.13;52.02
11678;BME280;5895;41.950;24.372;2023-03-13T09:16:25;86980.13;;;8.05;51.27
11678;BME280;5895;41.950;24.372;2023-03-13T09:18:55;86983.84;;;8.16;52.49
11678;BME280;5895;41.950;24.372;2023-03-13T09:21:31;86975.41;;;8.27;50.34
11678;BME280;5895;41.950;24.372;2023-03-13T09:23:59;86981.69;;;8.44;52.43
11678;BME280;5895;41.950;24.372;2023-03-13T09:26:27;86981.47;;;8.71;51.98
11678;BME280;5895;41.950;24.372;2023-03-13T09:28:55;86964.56;;;8.93;52.07
11678;BME280;5895;41.950;24.372;2023-03-13T09:31:23;86968.75;;;9.13;52.19
11678;BME280;5895;41.950;24.372;2023-03-13T09:33:53;86979.25;;;9.36;52.28
11678;BME280;5895;41.950;24.372;2023-03-13T09:36:21;86971.44;;;9.61;52.23
11678;BME280;5895;41.950;24.372;2023-03-13T09:38:49;86972.41;;;9.78;51.50
11678;BME280;5895;41.950;24.372;2023-03-13T09:41:23;86966.34;;;9.85;48.00
11678;BME280;5895;41.950;24.372;2023-03-13T09:43:57;86976.81;;;10.08;50.28
11678;BME280;5895;41.950;24.372;2023-03-13T09:46:32;86960.75;;;10.18;48.14
11678;BME280;5895;41.950;24.372;2023-03-13T09:49:04;86967.69;;;10.36;48.98
11678;BME280;5895;41.950;24.372;2023-03-13T09:51:37;86972.25;;;10.52;51.09
11678;BME280;5895;41.950;24.372;2023-03-13T09:54:15;86967.66;;;10.66;48.74
11678;BME280;5895;41.950;24.372;2023-03-13T09:56:51;86976.25;;;10.78;46.29
11678;BME280;5895;41.950;24.372;2023-03-13T09:59:26;86965.66;;;10.91;48.04
11678;BME280;5895;41.950;24.372;2023-03-13T10:01:57;86953.47;;;11.03;49.22
11678;BME280;5895;41.950;24.372;2023-03-13T10:04:35;86953.16;;;11.11;46.62
11678;BME280;5895;41.950;24.372;2023-03-13T10:07:09;86952.44;;;11.39;48.20
11678;BME280;5895;41.950;24.372;2023-03-13T10:09:37;86946.44;;;11.62;50.39
11678;BME280;5895;41.950;24.372;2023-03-13T10:12:09;86942.63;;;11.94;48.27
11678;BME280;5895;41.950;24.372;2023-03-13T10:14:42;86948.00;;;12.15;46.85
11678;BME280;5895;41.950;24.372;2023-03-13T10:17:19;86949.84;;;12.32;45.90
11678;BME280;5895;41.950;24.372;2023-03-13T10:19:55;86947.34;;;12.37;45.36
11678;BME280;5895;41.950;24.372;2023-03-13T10:22:25;86952.91;;;12.57;48.93
11678;BME280;5895;41.950;24.372;2023-03-13T10:24:57;86957.81;;;12.70;46.96
11678;BME280;5895;41.950;24.372;2023-03-13T10:27:25;86950.53;;;12.73;49.04
11678;BME280;5895;41.950;24.372;2023-03-13T10:29:52;86954.72;;;12.90;49.26
11678;BME280;5895;41.950;24.372;2023-03-13T10:32:20;86952.22;;;13.12;48.33
11678;BME280;5895;41.950;24.372;2023-03-13T10:34:55;86951.41;;;13.45;43.74
11678;BME280;5895;41.950;24.372;2023-03-13T10:37:25;86952.91;;;13.58;47.19
11678;BME280;5895;41.950;24.372;2023-03-13T10:39:53;86946.38;;;13.77;48.73
11678;BME280;5895;41.950;24.372;2023-03-13T10:42:25;86948.16;;;13.94;45.74
11678;BME280;5895;41.950;24.372;2023-03-13T10:44:58;86950.03;;;14.20;44.38
11678;BME280;5895;41.950;24.372;2023-03-13T10:47:26;86945.03;;;14.41;47.25
11678;BME280;5895;41.950;24.372;2023-03-13T10:50:01;86945.69;;;14.53;44.70
11678;BME280;5895;41.950;24.372;2023-03-13T10:52:35;86942.91;;;14.38;38.67
11678;BME280;5895;41.950;24.372;2023-03-13T10:55:10;86936.94;;;14.15;46.10
11678;BME280;5895;41.950;24.372;2023-03-13T10:57:40;86933.69;;;14.30;46.46
11678;BME280;5895;41.950;24.372;2023-03-13T11:00:31;86942.31;;;14.52;39.26
11678;BME280;5895;41.950;24.372;2023-03-13T11:03:01;86929.88;;;14.38;47.03
11678;BME280;5895;41.950;24.372;2023-03-13T11:05:37;86937.34;;;14.07;43.08
11678;BME280;5895;41.950;24.372;2023-03-13T11:08:17;86931.84;;;14.25;42.73
11678;BME280;5895;41.950;24.372;2023-03-13T11:10:52;86929.91;;;13.94;44.23
11678;BME280;5895;41.950;24.372;2023-03-13T11:13:30;86926.38;;;14.05;41.36
11678;BME280;5895;41.950;24.372;2023-03-13T11:16:05;86926.63;;;14.25;47.33
11678;BME280;5895;41.950;24.372;2023-03-13T11:18:39;86928.03;;;14.60;44.55
11678;BME280;5895;41.950;24.372;2023-03-13T11:21:19;86923.88;;;14.64;41.19
11678;BME280;5895;41.950;24.372;2023-03-13T11:23:56;86922.41;;;14.73;42.85
11678;BME280;5895;41.950;24.372;2023-03-13T11:26:31;86921.91;;;14.76;43.70
11678;BME280;5895;41.950;24.372;2023-03-13T11:29:05;86918.69;;;14.69;44.46
11678;BME280;5895;41.950;24.372;2023-03-13T11:31:39;86921.47;;;14.85;46.56
11678;BME280;5895;41.950;24.372;2023-03-13T11:34:14;86913.75;;;15.00;42.49
11678;BME280;5895;41.950;24.372;2023-03-13T11:36:51;86920.63;;;14.79;43.63
11678;BME280;5895;41.950;24.372;2023-03-13T11:39:40;86912.41;;;14.97;41.62
11678;BME280;5895;41.950;24.372;2023-03-13T11:42:24;86911.72;;;15.07;41.93
11678;BME280;5895;41.950;24.372;2023-03-13T11:44:59;86915.63;;;15.04;41.65
11678;BME280;5895;41.950;24.372;2023-03-13T11:47:42;86898.16;;;15.10;39.36
11678;BME280;5895;41.950;24.372;2023-03-13T11:50:25;86904.75;;;14.86;38.65
11678;BME280;5895;41.950;24.372;2023-03-13T11:53:16;86895.81;;;14.76;39.80
11678;BME280;5895;41.950;24.372;2023-03-13T11:56:02;86885.28;;;14.98;41.08
11678;BME280;5895;41.950;24.372;2023-03-13T11:58:41;86873.41;;;15.23;42.98
11678;BME280;5895;41.950;24.372;2023-03-13T12:01:12;86877.38;;;15.30;45.60
11678;BME280;5895;41.950;24.372;2023-03-13T12:03:46;86872.09;;;15.25;43.26
11678;BME280;5895;41.950;24.372;2023-03-13T12:06:23;86869.13;;;15.06;42.54
11678;BME280;5895;41.950;24.372;2023-03-13T12:08:57;86864.31;;;14.93;42.70
11678;BME280;5895;41.950;24.372;2023-03-13T12:11:28;86873.59;;;15.11;45.94
11678;BME280;5895;41.950;24.372;2023-03-13T12:14:00;86876.88;;;15.33;47.07
11678;BME280;5895;41.950;24.372;2023-03-13T12:16:38;86869.09;;;15.44;39.62
11678;BME280;5895;41.950;24.372;2023-03-13T12:19:10;86873.56;;;15.43;45.28
11678;BME280;5895;41.950;24.372;2023-03-13T12:21:42;86877.00;;;15.59;43.23
11678;BME280;5895;41.950;24.372;2023-03-13T12:24:21;86876.09;;;15.75;41.43
11678;BME280;5895;41.950;24.372;2023-03-13T12:26:51;86867.75;;;15.83;44.61
11678;BME280;5895;41.950;24.372;2023-03-13T12:29:27;86866.47;;;15.91;41.89
11678;BME280;5895;41.950;24.372;2023-03-13T12:31:58;86864.72;;;16.07;45.92
11678;BME280;5895;41.950;24.372;2023-03-13T12:34:33;86862.66;;;16.24;43.48
11678;BME280;5895;41.950;24.372;2023-03-13T12:37:08;86864.19;;;16.15;42.74
11678;BME280;5895;41.950;24.372;2023-03-13T12:39:41;86867.38;;;16.22;42.51
11678;BME280;5895;41.950;24.372;2023-03-13T12:42:18;86863.72;;;16.38;38.99
11678;BME280;5895;41.950;24.372;2023-03-13T12:44:49;86864.81;;;16.43;46.32
11678;BME280;5895;41.950;24.372;2023-03-13T12:47:24;86862.22;;;16.53;39.15
11678;BME280;5895;41.950;24.372;2023-03-13T12:50:15;86866.38;;;16.44;36.51
11678;BME280;5895;41.950;24.372;2023-03-13T12:52:57;86874.16;;;16.18;38.37
11678;BME280;5895;41.950;24.372;2023-03-13T12:55:53;86872.63;;;16.32;37.39
11678;BME280;5895;41.950;24.372;2023-03-13T12:58:40;86873.69;;;16.31;37.43
11678;BME280;5895;41.950;24.372;2023-03-13T13:01:16;86871.59;;;16.38;40.60
11678;BME280;5895;41.950;24.372;2023-03-13T13:03:51;86863.25;;;16.52;40.13
11678;BME280;5895;41.950;24.372;2023-03-13T13:06:18;86863.75;;;16.49;45.60
11678;BME280;5895;41.950;24.372;2023-03-13T13:09:02;86862.19;;;16.43;36.46
11678;BME280;5895;41.950;24.372;2023-03-13T13:11:47;86866.38;;;16.33;36.41
11678;BME280;5895;41.950;24.372;2023-03-13T13:17:44;86865.75;;;16.06;37.14
11678;BME280;5895;41.950;24.372;2023-03-13T13:20:42;86879.38;;;16.08;37.23
11678;BME280;5895;41.950;24.372;2023-03-13T13:23:25;86870.47;;;16.14;37.99